createdAt,value
2022-09-14T00:00:07.980Z,18.23
2022-09-14T00:01:24.149Z,18.35
2022-09-14T00:02:08.094Z,18.23
2022-09-14T00:03:08.200Z,18.23
2022-09-14T00:04:07.982Z,18.18
2022-09-14T00:05:08.034Z,18.21
2022-09-14T00:06:07.984Z,18.25
2022-09-14T00:07:07.985Z,18.25
2022-09-14T00:08:07.979Z,18.23
2022-09-14T00:09:07.986Z,18.29
2022-09-14T00:10:07.985Z,18.18
2022-09-14T00:11:07.984Z,18.12
2022-09-14T00:12:07.982Z,18.14
2022-09-14T00:13:07.984Z,18.11
2022-09-14T00:14:07.982Z,18.10
2022-09-14T00:15:07.984Z,18.10
2022-09-14T00:16:08.010Z,18.10
2022-09-14T00:17:08.031Z,18.07
2022-09-14T00:18:07.987Z,18.11
2022-09-14T00:19:08.002Z,18.08
2022-09-14T00:20:07.991Z,18.11
2022-09-14T00:21:07.984Z,18.07
2022-09-14T00:22:07.986Z,18.12
2022-09-14T00:23:07.984Z,18.07
2022-09-14T00:24:07.989Z,18.02
2022-09-14T00:25:07.995Z,18.05
2022-09-14T00:26:07.988Z,18.07
2022-09-14T00:27:07.991Z,18.07
2022-09-14T00:28:07.987Z,18.07
2022-09-14T00:29:07.987Z,17.97
2022-09-14T00:30:07.986Z,18.03
2022-09-14T00:31:07.983Z,18.00
2022-09-14T00:32:08.071Z,17.96
2022-09-14T00:33:07.992Z,17.92
2022-09-14T00:34:07.988Z,17.89
2022-09-14T00:35:08.009Z,17.86
2022-09-14T00:36:07.989Z,17.89
2022-09-14T00:37:07.989Z,17.82
2022-09-14T00:38:07.988Z,17.82
2022-09-14T00:39:07.983Z,17.77
2022-09-14T00:40:08.038Z,17.78
2022-09-14T00:41:07.987Z,17.75
2022-09-14T00:42:07.987Z,17.81
2022-09-14T00:43:07.995Z,17.79
2022-09-14T00:44:07.989Z,17.86
2022-09-14T00:45:07.987Z,17.66
2022-09-14T00:46:08.037Z,17.74
2022-09-14T00:47:07.992Z,17.71
2022-09-14T00:48:07.986Z,17.74
2022-09-14T00:49:07.991Z,17.72
2022-09-14T00:50:07.991Z,17.66
2022-09-14T00:51:08.006Z,17.66
2022-09-14T00:52:07.992Z,17.63
2022-09-14T00:53:07.990Z,17.70
2022-09-14T00:54:07.987Z,17.66
2022-09-14T00:55:07.987Z,17.62
2022-09-14T00:56:07.987Z,17.64
2022-09-14T00:57:07.996Z,17.62
2022-09-14T00:58:07.989Z,17.62
2022-09-14T00:59:07.990Z,17.70
2022-09-14T01:00:07.989Z,17.56
2022-09-14T01:01:08.059Z,17.71
2022-09-14T01:02:08.050Z,17.52
2022-09-14T01:03:07.991Z,17.56
2022-09-14T01:04:07.987Z,17.54
2022-09-14T01:05:07.989Z,17.49
2022-09-14T01:06:07.988Z,17.49
2022-09-14T01:07:08.100Z,17.49
2022-09-14T01:08:07.989Z,17.49
2022-09-14T01:09:07.989Z,17.46
2022-09-14T01:10:07.997Z,17.43
2022-09-14T01:11:07.992Z,17.43
2022-09-14T01:12:07.993Z,17.41
2022-09-14T01:13:07.989Z,17.37
2022-09-14T01:14:07.990Z,17.44
2022-09-14T01:15:07.991Z,17.40
2022-09-14T01:16:08.057Z,17.38
2022-09-14T01:17:07.991Z,17.37
2022-09-14T01:18:07.989Z,17.38
2022-09-14T01:19:07.988Z,17.37
2022-09-14T01:20:07.991Z,17.44
2022-09-14T01:21:07.993Z,17.34
2022-09-14T01:22:07.988Z,17.34
2022-09-14T01:23:08.011Z,17.36
2022-09-14T01:24:07.988Z,17.37
2022-09-14T01:25:07.990Z,17.36
2022-09-14T01:26:07.987Z,17.37
2022-09-14T01:27:07.987Z,17.38
2022-09-14T01:28:07.993Z,17.30
2022-09-14T01:29:07.993Z,17.21
2022-09-14T01:30:07.991Z,17.21
2022-09-14T01:31:08.031Z,17.18
2022-09-14T01:32:07.996Z,17.19
2022-09-14T01:33:07.992Z,17.21
2022-09-14T01:34:07.991Z,17.30
2022-09-14T01:35:07.989Z,17.25
2022-09-14T01:36:07.992Z,17.25
2022-09-14T01:37:08.007Z,17.26
2022-09-14T01:38:07.997Z,17.28
2022-09-14T01:39:08.014Z,17.33
2022-09-14T01:40:08.080Z,17.25
2022-09-14T01:41:07.991Z,17.21
2022-09-14T01:42:07.991Z,17.23
2022-09-14T01:43:07.989Z,17.28
2022-09-14T01:44:07.995Z,17.26
2022-09-14T01:45:07.993Z,17.16
2022-09-14T01:46:08.052Z,17.16
2022-09-14T01:47:07.992Z,17.18
2022-09-14T01:48:07.993Z,17.15
2022-09-14T01:49:07.994Z,17.19
2022-09-14T01:50:07.992Z,17.18
2022-09-14T01:51:07.993Z,17.33
2022-09-14T01:52:07.988Z,17.18
2022-09-14T01:53:07.992Z,17.19
2022-09-14T01:54:07.988Z,17.21
2022-09-14T01:55:08.100Z,17.18
2022-09-14T01:56:08.011Z,17.15
2022-09-14T01:57:07.992Z,17.22
2022-09-14T01:58:07.990Z,17.23
2022-09-14T01:59:07.993Z,17.16
2022-09-14T02:00:07.991Z,17.22
2022-09-14T02:01:08.135Z,17.19
2022-09-14T02:02:08.086Z,17.22
2022-09-14T02:03:07.993Z,17.19
2022-09-14T02:04:07.989Z,17.19
2022-09-14T02:05:07.993Z,17.14
2022-09-14T02:06:07.997Z,17.22
2022-09-14T02:07:07.991Z,17.23
2022-09-14T02:08:07.989Z,17.19
2022-09-14T02:09:07.994Z,17.16
2022-09-14T02:10:08.043Z,17.22
2022-09-14T02:11:08.023Z,17.18
2022-09-14T02:12:07.989Z,17.12
2022-09-14T02:13:07.991Z,17.12
2022-09-14T02:14:07.992Z,17.14
2022-09-14T02:15:07.996Z,17.07
2022-09-14T02:16:08.093Z,17.14
2022-09-14T02:17:07.993Z,17.14
2022-09-14T02:18:07.992Z,17.04
2022-09-14T02:19:07.989Z,17.06
2022-09-14T02:20:07.992Z,17.11
2022-09-14T02:21:07.994Z,17.06
2022-09-14T02:22:07.993Z,17.01
2022-09-14T02:23:07.990Z,16.97
2022-09-14T02:24:07.998Z,17.04
2022-09-14T02:25:07.991Z,17.00
2022-09-14T02:26:07.988Z,16.96
2022-09-14T02:27:08.014Z,17.04
2022-09-14T02:28:07.992Z,17.08
2022-09-14T02:29:07.993Z,17.11
2022-09-14T02:30:07.993Z,17.06
2022-09-14T02:31:08.127Z,17.14
2022-09-14T02:32:07.990Z,17.03
2022-09-14T02:33:07.990Z,17.14
2022-09-14T02:34:07.992Z,17.07
2022-09-14T02:35:07.989Z,17.04
2022-09-14T02:36:07.992Z,17.07
2022-09-14T02:37:07.987Z,17.00
2022-09-14T02:38:07.988Z,17.04
2022-09-14T02:39:07.996Z,17.04
2022-09-14T02:40:08.010Z,16.98
2022-09-14T02:41:07.989Z,16.98
2022-09-14T02:42:07.996Z,17.00
2022-09-14T02:43:08.008Z,17.01
2022-09-14T02:44:07.990Z,16.94
2022-09-14T02:45:07.985Z,16.97
2022-09-14T02:46:07.988Z,16.97
2022-09-14T02:47:08.053Z,16.94
2022-09-14T02:48:07.987Z,16.98
2022-09-14T02:49:07.990Z,16.83
2022-09-14T02:50:07.991Z,16.89
2022-09-14T02:51:07.990Z,16.89
2022-09-14T02:52:07.989Z,16.96
2022-09-14T02:53:07.991Z,16.89
2022-09-14T02:54:07.994Z,16.88
2022-09-14T02:55:07.999Z,16.75
2022-09-14T02:56:07.990Z,16.83
2022-09-14T02:57:07.986Z,16.85
2022-09-14T02:58:07.990Z,16.86
2022-09-14T02:59:08.008Z,16.82
2022-09-14T03:00:07.983Z,16.86
2022-09-14T03:01:08.090Z,16.86
2022-09-14T03:02:08.038Z,16.86
2022-09-14T03:03:07.989Z,16.78
2022-09-14T03:04:07.993Z,16.91
2022-09-14T03:05:07.993Z,16.85
2022-09-14T03:06:07.991Z,16.89
2022-09-14T03:07:07.987Z,16.86
2022-09-14T03:08:07.989Z,16.86
2022-09-14T03:09:07.991Z,16.89
2022-09-14T03:10:07.988Z,16.85
2022-09-14T03:11:07.989Z,16.76
2022-09-14T03:12:07.986Z,16.81
2022-09-14T03:13:07.990Z,16.83
2022-09-14T03:14:07.987Z,16.83
2022-09-14T03:15:08.009Z,16.76
2022-09-14T03:16:08.076Z,16.79
2022-09-14T03:17:07.989Z,16.83
2022-09-14T03:18:12.288Z,16.78
2022-09-14T03:19:07.989Z,16.89
2022-09-14T03:20:07.988Z,16.81
2022-09-14T03:21:07.989Z,16.81
2022-09-14T03:22:08.003Z,16.81
2022-09-14T03:23:07.990Z,16.86
2022-09-14T03:24:07.987Z,16.88
2022-09-14T03:25:07.986Z,16.91
2022-09-14T03:26:07.986Z,16.83
2022-09-14T03:27:07.996Z,16.82
2022-09-14T03:28:07.988Z,16.88
2022-09-14T03:29:07.993Z,16.91
2022-09-14T03:30:07.989Z,16.89
2022-09-14T03:31:08.091Z,16.85
2022-09-14T03:32:07.983Z,16.89
2022-09-14T03:33:07.990Z,16.82
2022-09-14T03:34:07.986Z,16.89
2022-09-14T03:35:07.989Z,16.89
2022-09-14T03:36:07.990Z,16.98
2022-09-14T03:37:07.987Z,16.98
2022-09-14T03:38:07.982Z,16.93
2022-09-14T03:39:07.976Z,16.89
2022-09-14T03:40:08.056Z,16.97
2022-09-14T03:41:07.978Z,16.85
2022-09-14T03:42:07.980Z,16.91
2022-09-14T03:43:07.978Z,16.89
2022-09-14T03:44:07.981Z,16.85
2022-09-14T03:45:07.978Z,16.88
2022-09-14T03:46:08.051Z,16.78
2022-09-14T03:47:08.068Z,16.68
2022-09-14T03:48:07.979Z,16.68
2022-09-14T03:49:07.977Z,16.70
2022-09-14T03:50:07.979Z,16.63
2022-09-14T03:51:07.984Z,16.66
2022-09-14T03:52:07.976Z,16.64
2022-09-14T03:53:07.979Z,16.64
2022-09-14T03:54:07.979Z,16.66
2022-09-14T03:55:07.983Z,16.66
2022-09-14T03:56:07.979Z,16.63
2022-09-14T03:57:07.983Z,16.57
2022-09-14T03:58:07.977Z,16.61
2022-09-14T03:59:07.974Z,16.64
2022-09-14T04:00:07.983Z,16.60
2022-09-14T04:01:07.987Z,16.67
2022-09-14T04:02:08.076Z,16.63
2022-09-14T04:03:08.070Z,16.66
2022-09-14T04:04:07.976Z,16.64
2022-09-14T04:05:07.979Z,16.61
2022-09-14T04:06:07.979Z,16.61
2022-09-14T04:07:07.978Z,16.52
2022-09-14T04:08:07.980Z,16.61
2022-09-14T04:09:07.975Z,16.57
2022-09-14T04:10:07.980Z,16.50
2022-09-14T04:11:07.978Z,16.41
2022-09-14T04:12:07.978Z,16.41
2022-09-14T04:13:07.976Z,16.35
2022-09-14T04:14:07.975Z,16.34
2022-09-14T04:15:07.977Z,16.39
2022-09-14T04:16:08.034Z,16.53
2022-09-14T04:17:07.974Z,16.58
2022-09-14T04:18:07.976Z,16.64
2022-09-14T04:19:08.076Z,16.60
2022-09-14T04:20:07.976Z,16.66
2022-09-14T04:21:08.779Z,16.48
2022-09-14T04:22:07.974Z,16.56
2022-09-14T04:23:07.977Z,16.57
2022-09-14T04:24:15.009Z,16.61
2022-09-14T04:25:07.972Z,16.60
2022-09-14T04:26:07.976Z,16.67
2022-09-14T04:27:07.975Z,16.67
2022-09-14T04:28:20.076Z,16.66
2022-09-14T04:29:07.973Z,16.68
2022-09-14T04:30:07.976Z,16.67
2022-09-14T04:31:08.006Z,16.63
2022-09-14T04:32:08.028Z,16.78
2022-09-14T04:33:07.977Z,16.73
2022-09-14T04:34:07.974Z,16.67
2022-09-14T04:35:07.994Z,16.73
2022-09-14T04:36:07.979Z,16.70
2022-09-14T04:37:07.974Z,16.70
2022-09-14T04:38:07.978Z,16.78
2022-09-14T04:39:07.972Z,16.83
2022-09-14T04:40:08.059Z,16.81
2022-09-14T04:41:07.971Z,16.79
2022-09-14T04:42:07.971Z,16.67
2022-09-14T04:43:07.968Z,16.75
2022-09-14T04:44:07.973Z,16.66
2022-09-14T04:45:07.971Z,16.61
2022-09-14T04:46:08.034Z,16.68
2022-09-14T04:47:07.970Z,16.68
2022-09-14T04:48:07.973Z,16.66
2022-09-14T04:49:07.975Z,16.71
2022-09-14T04:50:07.977Z,16.64
2022-09-14T04:51:07.994Z,16.60
2022-09-14T04:52:07.977Z,16.75
2022-09-14T04:53:07.972Z,16.68
2022-09-14T04:54:07.975Z,16.78
2022-09-14T04:55:07.974Z,16.78
2022-09-14T04:56:07.978Z,16.75
2022-09-14T04:57:07.968Z,16.76
2022-09-14T04:58:07.974Z,16.67
2022-09-14T04:59:07.977Z,16.75
2022-09-14T05:00:07.970Z,16.63
2022-09-14T05:01:07.998Z,16.64
2022-09-14T05:02:08.032Z,16.68
2022-09-14T05:03:07.989Z,16.64
2022-09-14T05:04:07.967Z,16.66
2022-09-14T05:05:07.970Z,16.75
2022-09-14T05:06:07.974Z,16.63
2022-09-14T05:07:07.997Z,16.71
2022-09-14T05:08:07.971Z,16.63
2022-09-14T05:09:07.968Z,16.71
2022-09-14T05:10:07.978Z,16.81
2022-09-14T05:11:07.965Z,16.73
2022-09-14T05:12:07.973Z,16.78
2022-09-14T05:13:07.968Z,16.75
2022-09-14T05:14:07.976Z,16.71
2022-09-14T05:15:07.966Z,16.75
2022-09-14T05:16:08.017Z,16.70
2022-09-14T05:17:07.965Z,16.70
2022-09-14T05:18:07.968Z,16.76
2022-09-14T05:19:07.970Z,16.79
2022-09-14T05:20:07.967Z,16.78
2022-09-14T05:21:08.640Z,16.76
2022-09-14T05:22:07.967Z,16.85
2022-09-14T05:23:07.997Z,16.83
2022-09-14T05:24:07.966Z,16.82
2022-09-14T05:25:07.965Z,16.88
2022-09-14T05:26:07.967Z,16.86
2022-09-14T05:27:07.966Z,16.96
2022-09-14T05:28:07.971Z,16.97
2022-09-14T05:29:07.973Z,17.04
2022-09-14T05:30:07.970Z,17.04
2022-09-14T05:31:08.039Z,17.08
2022-09-14T05:32:08.016Z,17.08
2022-09-14T05:33:07.968Z,17.07
2022-09-14T05:34:07.968Z,17.16
2022-09-14T05:35:07.968Z,17.21
2022-09-14T05:36:07.966Z,17.16
2022-09-14T05:37:07.962Z,17.15
2022-09-14T05:38:07.965Z,17.16
2022-09-14T05:39:07.988Z,17.22
2022-09-14T05:40:08.090Z,17.21
2022-09-14T05:41:07.971Z,17.36
2022-09-14T05:42:07.966Z,17.30
2022-09-14T05:43:07.961Z,17.28
2022-09-14T05:44:07.966Z,17.43
2022-09-14T05:45:07.968Z,17.46
2022-09-14T05:46:08.094Z,17.46
2022-09-14T05:47:07.965Z,17.43
2022-09-14T05:48:07.968Z,17.55
2022-09-14T05:49:07.964Z,17.54
2022-09-14T05:50:07.966Z,17.52
2022-09-14T05:51:07.965Z,17.58
2022-09-14T05:52:07.967Z,17.51
2022-09-14T05:53:07.968Z,17.49
2022-09-14T05:54:07.966Z,17.49
2022-09-14T05:55:07.980Z,17.55
2022-09-14T05:56:07.964Z,17.54
2022-09-14T05:57:07.964Z,17.63
2022-09-14T05:58:07.964Z,17.68
2022-09-14T05:59:07.965Z,17.66
2022-09-14T06:00:07.970Z,17.62
2022-09-14T06:01:07.964Z,17.66
2022-09-14T06:02:08.037Z,17.66
2022-09-14T06:03:07.962Z,17.55
2022-09-14T06:04:07.970Z,17.54
2022-09-14T06:05:08.025Z,17.51
2022-09-14T06:06:07.965Z,17.51
2022-09-14T06:07:18.436Z,17.54
2022-09-14T06:08:07.965Z,17.56
2022-09-14T06:09:07.965Z,17.62
2022-09-14T06:10:07.963Z,17.78
2022-09-14T06:11:08.073Z,17.70
2022-09-14T06:12:07.966Z,17.78
2022-09-14T06:13:07.965Z,17.81
2022-09-14T06:14:07.967Z,17.79
2022-09-14T06:15:07.969Z,17.93
2022-09-14T06:16:07.964Z,17.93
2022-09-14T06:17:07.963Z,17.96
2022-09-14T06:18:07.963Z,17.96
2022-09-14T06:19:07.968Z,18.10
2022-09-14T06:20:07.965Z,18.08
2022-09-14T06:21:07.962Z,18.12
2022-09-14T06:22:07.968Z,18.23
2022-09-14T06:23:07.972Z,18.33
2022-09-14T06:24:07.964Z,18.48
2022-09-14T06:25:07.967Z,18.54
2022-09-14T06:26:07.963Z,18.58
2022-09-14T06:27:07.981Z,18.57
2022-09-14T06:28:07.967Z,18.58
2022-09-14T06:29:08.029Z,18.66
2022-09-14T06:30:07.969Z,18.69
2022-09-14T06:31:07.960Z,18.80
2022-09-14T06:32:08.016Z,18.81
2022-09-14T06:33:07.962Z,18.82
2022-09-14T06:34:07.967Z,18.95
2022-09-14T06:35:12.217Z,18.98
2022-09-14T06:36:07.962Z,18.91
2022-09-14T06:37:07.970Z,18.90
2022-09-14T06:38:07.963Z,18.95
2022-09-14T06:39:07.964Z,18.94
2022-09-14T06:40:08.007Z,18.95
2022-09-14T06:41:07.963Z,19.16
2022-09-14T06:42:07.959Z,19.19
2022-09-14T06:43:08.026Z,19.21
2022-09-14T06:44:07.969Z,19.23
2022-09-14T06:45:07.964Z,19.22
2022-09-14T06:46:07.970Z,19.28
2022-09-14T06:47:07.965Z,19.28
2022-09-14T06:48:07.967Z,19.48
2022-09-14T06:49:07.964Z,19.62
2022-09-14T06:50:07.967Z,19.65
2022-09-14T06:51:07.962Z,19.77
2022-09-14T06:52:07.963Z,19.91
2022-09-14T06:53:07.964Z,20.17
2022-09-14T06:54:07.966Z,20.26
2022-09-14T06:55:07.964Z,20.59
2022-09-14T06:56:07.967Z,20.88
2022-09-14T06:57:07.972Z,21.25
2022-09-14T06:58:07.965Z,21.65
2022-09-14T06:59:07.995Z,21.82
2022-09-14T07:00:07.972Z,21.74
2022-09-14T07:01:07.967Z,21.64
2022-09-14T07:02:07.972Z,21.64
2022-09-14T07:03:08.055Z,21.61
2022-09-14T07:04:07.971Z,21.90
2022-09-14T07:05:07.967Z,22.17
2022-09-14T07:06:07.966Z,22.30
2022-09-14T07:07:07.966Z,22.57
2022-09-14T07:08:11.931Z,22.55
2022-09-14T07:09:07.970Z,22.31
2022-09-14T07:10:07.975Z,22.42
2022-09-14T07:11:07.976Z,22.62
2022-09-14T07:12:07.972Z,22.76
2022-09-14T07:13:07.975Z,23.16
2022-09-14T07:14:07.974Z,23.16
2022-09-14T07:15:07.990Z,23.19
2022-09-14T07:16:07.977Z,23.19
2022-09-14T07:17:07.976Z,22.98
2022-09-14T07:18:07.986Z,22.80
2022-09-14T07:19:07.974Z,22.58
2022-09-14T07:20:07.981Z,22.40
2022-09-14T07:21:07.977Z,22.22
2022-09-14T07:22:07.979Z,22.27
2022-09-14T07:23:07.983Z,22.37
2022-09-14T07:24:07.985Z,22.22
2022-09-14T07:25:07.982Z,22.17
2022-09-14T07:26:07.986Z,22.05
2022-09-14T07:27:07.983Z,21.99
2022-09-14T07:28:07.997Z,21.94
2022-09-14T07:29:07.982Z,21.91
2022-09-14T07:30:07.990Z,21.91
2022-09-14T07:31:08.050Z,21.91
2022-09-14T07:32:07.993Z,21.92
2022-09-14T07:33:07.997Z,22.07
2022-09-14T07:34:07.988Z,22.22
2022-09-14T07:35:07.987Z,22.54
2022-09-14T07:36:07.990Z,22.62
2022-09-14T07:37:07.999Z,22.94
2022-09-14T07:38:07.994Z,23.10
2022-09-14T07:39:07.995Z,23.35
2022-09-14T07:40:08.112Z,23.48
2022-09-14T07:41:07.992Z,23.70
2022-09-14T07:42:08.003Z,23.85
2022-09-14T07:43:07.995Z,23.98
2022-09-14T07:44:08.006Z,24.00
2022-09-14T07:45:07.996Z,23.80
2022-09-14T07:46:08.055Z,23.83
2022-09-14T07:47:08.028Z,23.84
2022-09-14T07:48:08.006Z,24.39
2022-09-14T07:49:08.001Z,24.87
2022-09-14T07:50:08.001Z,25.36
2022-09-14T07:51:08.009Z,25.76
2022-09-14T07:52:08.008Z,26.09
2022-09-14T07:53:08.007Z,26.54
2022-09-14T07:54:08.009Z,26.77
2022-09-14T07:55:08.013Z,26.94
2022-09-14T07:56:08.007Z,27.31
2022-09-14T07:57:08.015Z,27.67
2022-09-14T07:58:08.015Z,28.17
2022-09-14T07:59:33.384Z,28.77
2022-09-14T08:00:08.019Z,29.18
2022-09-14T08:01:08.099Z,29.14
2022-09-14T08:02:08.133Z,28.93
2022-09-14T08:03:08.124Z,28.58
2022-09-14T08:04:08.028Z,28.29
2022-09-14T08:05:08.030Z,28.00
2022-09-14T08:06:08.033Z,27.82
2022-09-14T08:07:08.031Z,27.55
2022-09-14T08:08:08.034Z,27.14
2022-09-14T08:09:08.031Z,26.99
2022-09-14T08:10:08.030Z,26.69
2022-09-14T08:11:08.048Z,26.63
2022-09-14T08:12:08.040Z,26.32
2022-09-14T08:13:08.043Z,26.10
2022-09-14T08:14:08.043Z,25.97
2022-09-14T08:15:08.048Z,26.06
2022-09-14T08:16:08.090Z,26.07
2022-09-14T08:17:08.050Z,26.10
2022-09-14T08:18:08.053Z,26.36
2022-09-14T08:19:08.080Z,26.63
2022-09-14T08:20:08.059Z,27.09
2022-09-14T08:21:08.062Z,27.57
2022-09-14T08:22:08.063Z,27.87
2022-09-14T08:23:08.062Z,27.97
2022-09-14T08:24:08.067Z,28.14
2022-09-14T08:25:08.069Z,28.30
2022-09-14T08:26:08.073Z,28.74
2022-09-14T08:27:09.232Z,29.08
2022-09-14T08:28:08.076Z,29.27
2022-09-14T08:29:08.088Z,29.36
2022-09-14T08:30:08.088Z,29.64
2022-09-14T08:31:08.089Z,29.92
2022-09-14T08:32:08.169Z,30.23
2022-09-14T08:33:08.094Z,30.45
2022-09-14T08:34:08.098Z,30.62
2022-09-14T08:35:08.127Z,30.82
2022-09-14T08:36:08.106Z,30.70
2022-09-14T08:37:08.108Z,30.88
2022-09-14T08:38:08.122Z,30.62
2022-09-14T08:39:08.121Z,30.53
2022-09-14T08:40:08.183Z,30.46
2022-09-14T08:41:08.131Z,30.29
2022-09-14T08:42:08.126Z,30.31
2022-09-14T08:43:08.135Z,30.23
2022-09-14T08:44:08.140Z,29.97
2022-09-14T08:45:09.889Z,29.78
2022-09-14T08:46:08.207Z,29.57
2022-09-14T08:47:08.156Z,29.46
2022-09-14T08:48:08.162Z,29.23
2022-09-14T08:49:08.167Z,29.06
2022-09-14T08:50:08.172Z,28.98
2022-09-14T08:51:08.287Z,28.98
2022-09-14T08:52:08.187Z,29.21
2022-09-14T08:53:08.187Z,29.23
2022-09-14T08:54:08.200Z,29.16
2022-09-14T08:55:08.204Z,29.00
2022-09-14T08:56:08.204Z,29.11
2022-09-14T08:57:08.215Z,29.02
2022-09-14T08:58:08.217Z,29.15
2022-09-14T08:59:08.212Z,28.96
2022-09-14T09:00:08.225Z,29.11
2022-09-14T09:01:08.295Z,29.11
2022-09-14T09:02:08.251Z,29.08
2022-09-14T09:03:08.258Z,29.02
2022-09-14T09:04:08.292Z,28.80
2022-09-14T09:05:08.260Z,28.64
2022-09-14T09:06:09.468Z,28.40
2022-09-14T09:07:08.264Z,28.36
2022-09-14T09:08:08.328Z,28.11
2022-09-14T09:09:08.288Z,27.94
2022-09-14T09:10:08.285Z,27.69
2022-09-14T09:11:08.291Z,27.54
2022-09-14T09:12:08.290Z,27.28
2022-09-14T09:13:08.306Z,27.10
2022-09-14T09:14:08.301Z,26.95
2022-09-14T09:15:08.314Z,26.73
2022-09-14T09:16:08.423Z,26.33
2022-09-14T09:17:08.321Z,26.09
2022-09-14T09:18:08.333Z,25.99
2022-09-14T09:19:08.334Z,25.95
2022-09-14T09:20:08.337Z,25.87
2022-09-14T09:21:08.348Z,25.92
2022-09-14T09:22:08.351Z,25.75
2022-09-14T09:23:08.352Z,25.85
2022-09-14T09:24:08.386Z,25.77
2022-09-14T09:25:08.369Z,25.62
2022-09-14T09:26:08.373Z,25.62
2022-09-14T09:27:08.377Z,25.55
2022-09-14T09:28:08.387Z,25.36
2022-09-14T09:29:08.385Z,25.40
2022-09-14T09:30:08.388Z,25.27
2022-09-14T09:31:13.965Z,25.09
2022-09-14T09:32:08.458Z,25.03
2022-09-14T09:33:08.403Z,25.06
2022-09-14T09:34:08.406Z,25.05
2022-09-14T09:35:08.410Z,25.13
2022-09-14T09:36:08.423Z,25.14
2022-09-14T09:37:08.424Z,25.15
2022-09-14T09:38:08.463Z,25.27
2022-09-14T09:39:08.432Z,25.39
2022-09-14T09:40:08.621Z,25.33
2022-09-14T09:41:08.435Z,25.43
2022-09-14T09:42:08.437Z,25.50
2022-09-14T09:43:08.444Z,25.52
2022-09-14T09:44:08.450Z,25.57
2022-09-14T09:45:08.452Z,25.83
2022-09-14T09:46:08.542Z,25.77
2022-09-14T09:47:08.535Z,26.05
2022-09-14T09:48:08.468Z,26.45
2022-09-14T09:49:08.469Z,26.66
2022-09-14T09:50:08.468Z,26.91
2022-09-14T09:51:08.480Z,27.27
2022-09-14T09:52:08.481Z,27.54
2022-09-14T09:53:08.488Z,27.78
2022-09-14T09:54:08.493Z,28.12
2022-09-14T09:55:08.499Z,28.25
2022-09-14T09:56:08.526Z,28.43
2022-09-14T09:57:08.505Z,28.24
2022-09-14T09:58:08.512Z,27.99
2022-09-14T09:59:08.512Z,27.60
2022-09-14T10:00:08.523Z,27.29
2022-09-14T10:01:12.245Z,26.80
2022-09-14T10:02:08.616Z,26.65
2022-09-14T10:03:08.536Z,26.44
2022-09-14T10:04:08.550Z,26.30
2022-09-14T10:05:08.549Z,26.25
2022-09-14T10:06:08.551Z,26.18
2022-09-14T10:07:08.558Z,26.09
2022-09-14T10:08:11.537Z,25.94
2022-09-14T10:09:08.570Z,25.97
2022-09-14T10:10:08.573Z,25.97
2022-09-14T10:11:08.574Z,25.94
2022-09-14T10:12:08.606Z,25.91
2022-09-14T10:13:08.590Z,26.39
2022-09-14T10:14:08.596Z,26.57
2022-09-14T10:15:08.605Z,26.69
2022-09-14T10:16:08.680Z,26.67
2022-09-14T10:17:08.610Z,26.54
2022-09-14T10:18:08.621Z,26.20
2022-09-14T10:19:08.623Z,25.94
2022-09-14T10:20:08.629Z,25.77
2022-09-14T10:21:08.634Z,25.62
2022-09-14T10:22:08.636Z,25.55
2022-09-14T10:23:08.648Z,25.35
2022-09-14T10:24:08.641Z,25.08
2022-09-14T10:25:08.649Z,25.10
2022-09-14T10:26:08.658Z,24.98
2022-09-14T10:27:08.667Z,25.06
2022-09-14T10:28:08.682Z,25.13
2022-09-14T10:29:08.669Z,25.25
2022-09-14T10:30:08.675Z,25.57
2022-09-14T10:31:08.773Z,25.70
2022-09-14T10:32:08.689Z,25.90
2022-09-14T10:33:08.689Z,25.94
2022-09-14T10:34:08.693Z,26.26
2022-09-14T10:35:08.749Z,26.45
2022-09-14T10:36:08.706Z,26.65
2022-09-14T10:37:08.708Z,27.12
2022-09-14T10:38:08.721Z,27.32
2022-09-14T10:39:08.724Z,27.27
2022-09-14T10:40:08.795Z,27.24
2022-09-14T10:41:08.726Z,27.14
2022-09-14T10:42:08.731Z,27.10
2022-09-14T10:43:08.739Z,26.94
2022-09-14T10:44:08.946Z,27.07
2022-09-14T10:45:08.752Z,26.88
2022-09-14T10:46:08.776Z,26.92
2022-09-14T10:47:08.756Z,26.97
2022-09-14T10:48:08.759Z,26.94
2022-09-14T10:49:08.764Z,26.88
2022-09-14T10:50:08.771Z,27.10
2022-09-14T10:51:08.774Z,27.24
2022-09-14T10:52:08.783Z,27.04
2022-09-14T10:53:08.783Z,27.13
2022-09-14T10:54:08.788Z,27.37
2022-09-14T10:55:08.799Z,27.60
2022-09-14T10:56:08.802Z,27.59
2022-09-14T10:57:08.809Z,27.79
2022-09-14T10:58:10.799Z,27.93
2022-09-14T10:59:08.815Z,28.70
2022-09-14T11:00:08.926Z,29.27
2022-09-14T11:01:08.837Z,29.71
2022-09-14T11:02:08.934Z,30.15
2022-09-14T11:03:08.913Z,30.15
2022-09-14T11:04:08.841Z,29.97
2022-09-14T11:05:08.850Z,30.20
2022-09-14T11:06:08.852Z,30.37
2022-09-14T11:07:08.865Z,30.58
2022-09-14T11:08:08.865Z,30.20
2022-09-14T11:09:08.869Z,29.80
2022-09-14T11:10:08.880Z,29.53
2022-09-14T11:11:11.432Z,29.39
2022-09-14T11:12:08.894Z,29.65
2022-09-14T11:13:08.895Z,29.61
2022-09-14T11:14:08.899Z,29.57
2022-09-14T11:15:08.909Z,29.39
2022-09-14T11:16:09.078Z,29.52
2022-09-14T11:17:08.916Z,29.73
2022-09-14T11:18:08.924Z,30.11
2022-09-14T11:19:08.931Z,29.79
2022-09-14T11:20:08.936Z,29.82
2022-09-14T11:21:08.945Z,30.00
2022-09-14T11:22:08.947Z,30.00
2022-09-14T11:23:08.950Z,29.95
2022-09-14T11:24:08.967Z,29.73
2022-09-14T11:25:08.966Z,29.70
2022-09-14T11:26:08.966Z,29.68
2022-09-14T11:27:08.978Z,29.71
2022-09-14T11:28:08.982Z,29.63
2022-09-14T11:29:08.992Z,29.73
2022-09-14T11:30:09.077Z,29.90
2022-09-14T11:31:09.045Z,30.22
2022-09-14T11:32:22.747Z,30.23
2022-09-14T11:33:09.020Z,30.64
2022-09-14T11:34:09.020Z,30.92
2022-09-14T11:35:09.080Z,31.34
2022-09-14T11:36:09.031Z,31.99
2022-09-14T11:37:09.039Z,32.38
2022-09-14T11:38:09.051Z,32.38
2022-09-14T11:39:09.051Z,32.40
2022-09-14T11:40:09.196Z,31.73
2022-09-14T11:41:09.067Z,31.34
2022-09-14T11:42:09.075Z,30.92
2022-09-14T11:43:09.082Z,30.43
2022-09-14T11:44:09.082Z,30.20
2022-09-14T11:45:09.089Z,30.23
2022-09-14T11:46:09.151Z,30.23
2022-09-14T11:47:09.096Z,30.43
2022-09-14T11:48:38.317Z,30.72
2022-09-14T11:49:09.118Z,30.46
2022-09-14T11:50:09.122Z,30.27
2022-09-14T11:51:09.127Z,29.89
2022-09-14T11:52:09.133Z,29.57
2022-09-14T11:53:09.142Z,29.02
2022-09-14T11:54:09.151Z,28.89
2022-09-14T11:55:09.164Z,28.62
2022-09-14T11:56:09.159Z,28.48
2022-09-14T11:57:09.171Z,28.40
2022-09-14T11:58:09.175Z,28.37
2022-09-14T11:59:09.194Z,28.36
2022-09-14T12:00:09.200Z,28.21
2022-09-14T12:01:09.194Z,28.09
2022-09-14T12:02:09.261Z,28.07
2022-09-14T12:03:09.321Z,28.03
2022-09-14T12:04:09.416Z,27.97
2022-09-14T12:05:09.224Z,28.04
2022-09-14T12:06:09.221Z,28.11
2022-09-14T12:07:09.227Z,28.15
2022-09-14T12:08:09.230Z,28.29
2022-09-14T12:09:09.240Z,28.19
2022-09-14T12:10:09.242Z,28.09
2022-09-14T12:11:09.248Z,28.00
2022-09-14T12:12:09.250Z,27.88
2022-09-14T12:13:09.256Z,27.87
2022-09-14T12:14:09.263Z,27.81
2022-09-14T12:15:09.269Z,27.72
2022-09-14T12:16:09.348Z,27.63
2022-09-14T12:17:22.740Z,27.55
2022-09-14T12:18:09.280Z,27.60
2022-09-14T12:19:09.291Z,27.49
2022-09-14T12:20:09.319Z,27.37
2022-09-14T12:21:09.313Z,27.36
2022-09-14T12:22:09.309Z,27.41
2022-09-14T12:23:09.316Z,27.24
2022-09-14T12:24:09.313Z,27.10
2022-09-14T12:25:09.324Z,27.10
2022-09-14T12:26:09.328Z,27.12
2022-09-14T12:27:09.340Z,27.12
2022-09-14T12:28:09.339Z,27.31
2022-09-14T12:29:09.342Z,27.27
2022-09-14T12:30:09.352Z,27.17
2022-09-14T12:31:09.405Z,27.07
2022-09-14T12:32:09.363Z,27.13
2022-09-14T12:33:09.363Z,27.10
2022-09-14T12:34:09.375Z,27.07
2022-09-14T12:35:09.421Z,27.03
2022-09-14T12:36:09.437Z,27.06
2022-09-14T12:37:12.136Z,27.02
2022-09-14T12:38:09.394Z,26.88
2022-09-14T12:39:09.393Z,26.73
2022-09-14T12:40:09.464Z,26.57
2022-09-14T12:41:09.400Z,26.62
2022-09-14T12:42:09.409Z,26.50
2022-09-14T12:43:09.410Z,26.52
2022-09-14T12:44:09.414Z,26.52
2022-09-14T12:45:09.416Z,26.52
2022-09-14T12:46:09.501Z,26.58
2022-09-14T12:47:09.429Z,26.50
2022-09-14T12:48:09.437Z,26.52
2022-09-14T12:49:09.441Z,26.51
2022-09-14T12:50:09.444Z,26.39
2022-09-14T12:51:09.445Z,26.28
2022-09-14T12:52:09.559Z,26.09